createdAt,value
2024-05-09T00:02:05.588Z,26.60
2024-05-09T00:04:51.163Z,25.73
2024-05-09T00:07:36.577Z,36.15
2024-05-09T00:10:29.074Z,25.63
2024-05-09T00:13:21.379Z,27.33
2024-05-09T00:16:07.602Z,26.00
2024-05-09T00:18:53.120Z,25.60
2024-05-09T00:21:43.332Z,21.45
2024-05-09T00:24:29.394Z,22.45
2024-05-09T00:27:15.839Z,25.40
2024-05-09T00:30:02.871Z,22.90
2024-05-09T00:32:49.729Z,23.23
2024-05-09T00:35:35.537Z,22.15
2024-05-09T00:38:21.366Z,26.33
2024-05-09T00:41:06.927Z,25.35
2024-05-09T00:43:52.377Z,28.35
2024-05-09T00:46:38.402Z,24.70
2024-05-09T00:49:25.257Z,24.33
2024-05-09T00:52:11.038Z,24.42
2024-05-09T00:54:57.474Z,25.75
2024-05-09T00:57:44.576Z,25.58
2024-05-09T01:00:37.949Z,23.00
2024-05-09T01:03:26.076Z,25.48
2024-05-09T01:06:12.428Z,24.88
2024-05-09T01:08:58.373Z,25.30
2024-05-09T01:11:44.319Z,26.42
2024-05-09T01:14:30.461Z,24.25
2024-05-09T01:17:16.304Z,25.25
2024-05-09T01:20:02.670Z,25.08
2024-05-09T01:22:49.299Z,27.50
2024-05-09T01:25:35.616Z,24.75
2024-05-09T01:28:21.504Z,23.30
2024-05-09T01:31:07.212Z,26.25
2024-05-09T01:33:52.910Z,26.55
2024-05-09T01:36:38.345Z,24.08
2024-05-09T01:39:24.067Z,25.42
2024-05-09T01:42:09.734Z,26.73
2024-05-09T01:44:55.237Z,24.88
2024-05-09T01:47:41.044Z,25.65
2024-05-09T01:50:37.387Z,27.00
2024-05-09T01:53:26.258Z,27.80
2024-05-09T01:56:12.041Z,26.75
2024-05-09T01:58:57.563Z,24.33
2024-05-09T02:01:56.465Z,28.58
2024-05-09T02:04:47.818Z,26.40
2024-05-09T02:07:35.407Z,24.98
2024-05-09T02:10:26.352Z,26.77
2024-05-09T02:13:17.627Z,28.77
2024-05-09T02:16:03.282Z,25.05
2024-05-09T02:18:49.181Z,28.73
2024-05-09T02:21:35.004Z,25.30
2024-05-09T02:24:20.660Z,27.27
2024-05-09T02:27:06.217Z,25.00
2024-05-09T02:29:51.657Z,26.67
2024-05-09T02:32:37.430Z,27.35
2024-05-09T02:35:22.879Z,26.35
2024-05-09T02:38:09.635Z,24.02
2024-05-09T02:40:55.878Z,26.70
2024-05-09T02:43:41.349Z,24.23
2024-05-09T02:46:26.919Z,24.63
2024-05-09T02:49:12.780Z,25.85
2024-05-09T02:51:58.182Z,26.70
2024-05-09T02:54:43.827Z,23.05
2024-05-09T02:57:29.402Z,22.73
2024-05-09T03:00:18.999Z,24.90
2024-05-09T03:03:14.312Z,24.08
2024-05-09T03:06:02.475Z,25.75
2024-05-09T03:08:48.167Z,28.10
2024-05-09T03:11:33.821Z,25.98
2024-05-09T03:14:19.717Z,24.35
2024-05-09T03:17:05.579Z,23.80
2024-05-09T03:19:51.054Z,24.77
2024-05-09T03:22:36.926Z,25.50
2024-05-09T03:25:22.573Z,25.05
2024-05-09T03:28:08.222Z,23.08
2024-05-09T03:30:53.826Z,21.95
2024-05-09T03:33:40.945Z,26.55
2024-05-09T03:36:26.442Z,25.50
2024-05-09T03:39:12.121Z,23.23
2024-05-09T03:41:58.008Z,24.33
2024-05-09T03:44:43.636Z,27.13
2024-05-09T03:47:29.557Z,22.90
2024-05-09T03:50:22.148Z,25.63
2024-05-09T03:53:13.042Z,21.88
2024-05-09T03:55:59.209Z,22.98
2024-05-09T03:58:44.695Z,24.13
2024-05-09T04:01:30.437Z,24.13
2024-05-09T04:04:16.218Z,21.02
2024-05-09T04:07:01.715Z,19.30
2024-05-09T04:09:47.454Z,20.88
2024-05-09T04:12:33.419Z,19.40
2024-05-09T04:15:19.321Z,20.73
2024-05-09T04:18:05.521Z,21.08
2024-05-09T04:20:51.442Z,19.65
2024-05-09T04:23:37.974Z,22.15
2024-05-09T04:26:23.780Z,23.13
2024-05-09T04:29:09.280Z,20.50
2024-05-09T04:31:55.008Z,19.60
2024-05-09T04:34:40.640Z,17.95
2024-05-09T04:37:26.420Z,19.30
2024-05-09T04:40:21.032Z,22.77
2024-05-09T04:43:19.571Z,23.88
2024-05-09T04:46:05.225Z,21.55
2024-05-09T04:48:50.836Z,19.88
2024-05-09T04:51:36.396Z,19.00
2024-05-09T04:54:30.188Z,18.60
2024-05-09T04:57:21.800Z,19.25
2024-05-09T05:00:14.507Z,19.95
2024-05-09T05:03:07.342Z,17.40
2024-05-09T05:05:53.951Z,18.65
2024-05-09T05:08:39.549Z,19.67
2024-05-09T05:11:25.236Z,18.88
2024-05-09T05:14:10.618Z,18.98
2024-05-09T05:16:56.212Z,22.15
2024-05-09T05:19:41.694Z,21.55
2024-05-09T05:22:27.153Z,16.08
2024-05-09T05:25:12.991Z,19.60
2024-05-09T05:27:58.547Z,19.90
2024-05-09T05:30:45.196Z,19.05
2024-05-09T05:33:31.138Z,18.17
2024-05-09T05:36:17.098Z,15.93
2024-05-09T05:39:02.663Z,18.50
2024-05-09T05:41:48.200Z,15.35
2024-05-09T05:44:33.940Z,19.75
2024-05-09T05:47:19.363Z,15.57
2024-05-09T05:50:09.368Z,16.48
2024-05-09T05:53:00.244Z,14.80
2024-05-09T05:55:45.796Z,18.15
2024-05-09T05:58:32.304Z,16.15
2024-05-09T06:01:18.129Z,14.80
2024-05-09T06:04:03.910Z,13.57
2024-05-09T06:06:49.478Z,15.30
2024-05-09T06:09:35.100Z,14.85
2024-05-09T06:12:20.819Z,13.27
2024-05-09T06:15:07.449Z,13.90
2024-05-09T06:17:53.213Z,12.13
2024-05-09T06:20:40.142Z,13.00
2024-05-09T06:23:26.068Z,15.07
2024-05-09T06:26:12.082Z,15.27
2024-05-09T06:28:57.881Z,14.63
2024-05-09T06:31:44.307Z,13.45
2024-05-09T06:34:30.305Z,13.57
2024-05-09T06:37:16.127Z,12.65
2024-05-09T06:40:01.742Z,13.50
2024-05-09T06:42:47.194Z,15.10
2024-05-09T06:45:32.839Z,14.43
2024-05-09T06:48:19.850Z,15.27
2024-05-09T06:51:06.423Z,14.07
2024-05-09T06:53:51.843Z,12.95
2024-05-09T06:56:39.086Z,12.02
2024-05-09T06:59:24.712Z,14.90
2024-05-09T07:02:10.531Z,13.18
2024-05-09T07:04:56.628Z,13.50
2024-05-09T07:07:42.551Z,12.27
2024-05-09T07:10:34.113Z,10.25
2024-05-09T07:13:20.810Z,12.98
2024-05-09T07:16:06.601Z,10.80
2024-05-09T07:18:55.182Z,13.73
2024-05-09T07:21:41.907Z,12.60
2024-05-09T07:24:27.399Z,16.55
2024-05-09T07:27:13.206Z,13.38
2024-05-09T07:29:59.131Z,11.45
2024-05-09T07:32:45.124Z,12.07
2024-05-09T07:35:31.682Z,11.35
2024-05-09T07:38:17.693Z,14.45
2024-05-09T07:41:04.130Z,11.75
2024-05-09T07:43:49.831Z,12.63
2024-05-09T07:53:29.724Z,11.65
2024-05-09T07:55:19.620Z,9.80
2024-05-09T07:58:05.986Z,12.93
2024-05-09T08:00:51.461Z,13.27
2024-05-09T08:03:37.992Z,12.85
2024-05-09T08:06:24.023Z,16.58
2024-05-09T08:09:13.893Z,11.63
2024-05-09T08:12:05.327Z,15.48
2024-05-09T08:14:53.074Z,13.50
2024-05-09T08:17:39.056Z,13.05
2024-05-09T08:20:31.001Z,12.95
2024-05-09T08:23:20.385Z,15.15
2024-05-09T08:26:06.011Z,12.60
2024-05-09T08:28:51.978Z,13.85
2024-05-09T08:31:39.306Z,11.93
2024-05-09T08:34:25.600Z,15.13
2024-05-09T08:37:15.762Z,11.95
2024-05-09T08:40:11.139Z,13.00
2024-05-09T08:43:01.167Z,13.43
2024-05-09T08:45:49.653Z,12.95
2024-05-09T08:48:39.306Z,16.05
2024-05-09T08:51:25.241Z,13.63
2024-05-09T08:54:10.985Z,15.40
2024-05-09T08:56:57.182Z,11.52
2024-05-09T08:59:47.588Z,10.90
2024-05-09T09:02:35.663Z,12.35
2024-05-09T09:05:27.286Z,13.45
2024-05-09T09:08:14.688Z,12.37
2024-05-09T09:11:00.801Z,13.85
2024-05-09T09:13:46.499Z,12.95
2024-05-09T09:16:36.222Z,11.95
2024-05-09T09:19:23.561Z,12.90
2024-05-09T09:22:09.514Z,12.38
2024-05-09T09:24:55.416Z,12.27
2024-05-09T09:27:41.054Z,13.15
2024-05-09T09:30:36.500Z,14.43
2024-05-09T09:33:23.929Z,11.48
2024-05-09T09:36:13.640Z,14.52
2024-05-09T09:38:59.604Z,12.43
2024-05-09T09:41:47.839Z,10.82
2024-05-09T09:44:34.228Z,11.23
2024-05-09T09:47:21.945Z,13.77
2024-05-09T09:50:14.267Z,12.65
2024-05-09T09:53:04.999Z,11.60
2024-05-09T09:55:52.281Z,15.13
2024-05-09T09:58:40.128Z,14.25
2024-05-09T10:01:26.014Z,16.25
2024-05-09T10:04:15.897Z,14.05
2024-05-09T10:07:07.302Z,13.00
2024-05-09T10:09:56.421Z,15.57
2024-05-09T10:12:56.780Z,16.35
2024-05-09T10:15:48.177Z,10.88
2024-05-09T10:18:41.476Z,14.32
2024-05-09T10:21:28.053Z,12.98
2024-05-09T10:24:18.882Z,12.30
2024-05-09T10:27:04.965Z,13.45
2024-05-09T10:30:01.610Z,12.45
2024-05-09T10:32:47.635Z,11.93
2024-05-09T10:35:33.122Z,12.00
2024-05-09T10:38:19.499Z,11.55
2024-05-09T10:41:06.353Z,13.20
2024-05-09T10:43:52.382Z,10.48
2024-05-09T10:46:38.335Z,11.75
2024-05-09T10:49:24.061Z,13.73
2024-05-09T10:52:10.209Z,10.70
2024-05-09T10:54:56.017Z,9.93
2024-05-09T10:57:41.972Z,10.55
2024-05-09T11:00:36.004Z,12.52
2024-05-09T11:03:26.158Z,9.52
2024-05-09T11:06:11.968Z,10.82
2024-05-09T11:08:57.838Z,10.48
2024-05-09T11:11:43.860Z,8.15
2024-05-09T11:14:29.488Z,7.85
2024-05-09T11:17:15.054Z,9.15
2024-05-09T11:20:00.864Z,8.23
2024-05-09T11:22:46.520Z,9.55
2024-05-09T11:25:33.346Z,11.07
2024-05-09T11:28:19.845Z,9.05
2024-05-09T11:31:07.713Z,11.07
2024-05-09T11:33:54.835Z,9.45
2024-05-09T11:36:40.737Z,7.60
2024-05-09T11:39:26.519Z,10.88
2024-05-09T11:42:12.267Z,10.73
2024-05-09T11:44:57.855Z,9.02
2024-05-09T11:47:43.627Z,6.78
2024-05-09T11:50:34.686Z,8.13
2024-05-09T11:53:21.492Z,8.03
2024-05-09T11:56:07.469Z,8.57
2024-05-09T11:58:53.284Z,8.68
2024-05-09T12:01:39.063Z,10.45
2024-05-09T12:04:24.606Z,8.95
2024-05-09T12:07:12.893Z,9.90
2024-05-09T12:09:59.096Z,10.93
2024-05-09T12:12:44.950Z,12.35
2024-05-09T12:15:30.653Z,10.38
2024-05-09T12:18:16.322Z,8.80
2024-05-09T12:21:02.060Z,8.90
2024-05-09T12:23:47.713Z,12.00
2024-05-09T12:26:33.300Z,10.15
2024-05-09T12:29:19.009Z,9.50
2024-05-09T12:32:05.191Z,9.57
2024-05-09T12:34:50.660Z,10.85
2024-05-09T12:37:36.445Z,9.38
2024-05-09T12:40:30.764Z,7.93
2024-05-09T12:43:20.396Z,10.25
2024-05-09T12:46:06.152Z,6.88
2024-05-09T12:48:52.092Z,9.10
2024-05-09T12:51:38.339Z,8.40
2024-05-09T12:54:23.799Z,7.93
2024-05-09T12:57:09.501Z,5.93
2024-05-09T12:59:56.180Z,8.52
2024-05-09T13:02:42.016Z,10.55
2024-05-09T13:05:27.929Z,7.50
2024-05-09T13:08:13.889Z,7.40
2024-05-09T13:10:59.518Z,7.70
2024-05-09T13:13:45.080Z,7.50
2024-05-09T13:16:30.785Z,8.07
2024-05-09T13:19:16.630Z,8.52
2024-05-09T13:22:02.799Z,9.23
2024-05-09T13:24:48.215Z,7.60
2024-05-09T13:27:33.746Z,7.80
2024-05-09T13:30:28.772Z,6.80
2024-05-09T13:33:21.085Z,13.27
2024-05-09T13:36:07.694Z,5.70
2024-05-09T13:38:53.330Z,6.60
2024-05-09T13:41:39.018Z,10.40
2024-05-09T13:44:24.771Z,6.82
2024-05-09T13:47:10.663Z,7.82
2024-05-09T13:49:55.987Z,6.43
2024-05-09T13:52:41.385Z,6.68
2024-05-09T13:55:26.965Z,7.07
2024-05-09T13:58:12.596Z,6.47
2024-05-09T14:00:58.447Z,9.48
2024-05-09T14:03:44.730Z,8.57
2024-05-09T14:06:32.028Z,7.30
2024-05-09T14:09:17.610Z,6.65
2024-05-09T14:12:03.394Z,8.07
2024-05-09T14:14:48.829Z,9.43
2024-05-09T14:17:34.634Z,6.93
2024-05-09T14:20:30.344Z,7.90
2024-05-09T14:23:18.449Z,7.68
2024-05-09T14:26:04.994Z,8.13
2024-05-09T14:28:50.775Z,6.55
2024-05-09T14:31:39.537Z,7.80
2024-05-09T14:34:25.913Z,6.43
2024-05-09T14:37:11.869Z,7.82
2024-05-09T14:39:58.340Z,8.68
2024-05-09T14:42:44.305Z,15.05
2024-05-09T14:45:29.811Z,9.45
2024-05-09T14:48:16.116Z,8.18
2024-05-09T14:51:01.789Z,8.48
2024-05-09T14:53:47.544Z,10.50
2024-05-09T14:56:33.533Z,10.13
2024-05-09T14:59:19.382Z,12.32
2024-05-09T15:02:05.132Z,10.05
2024-05-09T15:04:50.747Z,8.60
2024-05-09T15:07:36.716Z,9.30
2024-05-09T15:10:31.133Z,10.77
2024-05-09T15:13:21.409Z,9.93
2024-05-09T15:16:07.833Z,8.18
2024-05-09T15:18:53.409Z,10.15
2024-05-09T15:21:39.611Z,10.65
2024-05-09T15:24:31.740Z,9.65
2024-05-09T15:27:18.149Z,11.00
2024-05-09T15:30:06.743Z,9.98
2024-05-09T15:32:54.403Z,7.68
2024-05-09T15:35:41.658Z,11.77
2024-05-09T15:38:27.708Z,6.60
2024-05-09T15:41:14.187Z,8.77
2024-05-09T15:43:59.882Z,8.90
2024-05-09T15:46:45.988Z,12.73
2024-05-09T15:49:31.817Z,10.65
2024-05-09T15:52:18.233Z,7.72
2024-05-09T15:55:03.911Z,9.88
2024-05-09T15:57:49.372Z,9.63
2024-05-09T16:00:39.302Z,9.43
2024-05-09T16:03:28.309Z,10.18
2024-05-09T16:06:14.324Z,8.75
2024-05-09T16:09:00.172Z,9.23
2024-05-09T16:11:45.906Z,12.35
2024-05-09T16:14:31.646Z,13.05
2024-05-09T16:17:17.419Z,9.45
2024-05-09T16:20:06.840Z,6.75
2024-05-09T16:22:54.813Z,10.35
2024-05-09T16:25:46.219Z,9.15
2024-05-09T16:28:32.175Z,9.25
2024-05-09T16:31:18.167Z,10.60
2024-05-09T16:34:03.956Z,9.52
2024-05-09T16:36:51.599Z,9.73
2024-05-09T16:39:37.883Z,9.00
2024-05-09T16:42:24.214Z,11.85
2024-05-09T16:45:11.487Z,9.48
2024-05-09T16:47:57.390Z,9.88
2024-05-09T16:50:43.211Z,12.38
2024-05-09T16:53:29.181Z,8.23
2024-05-09T16:56:14.807Z,6.85
2024-05-09T16:59:00.567Z,7.38
2024-05-09T17:01:46.316Z,7.00
2024-05-09T17:04:31.879Z,13.02
2024-05-09T17:07:17.633Z,12.15
2024-05-09T17:10:03.996Z,6.40
2024-05-09T17:12:50.951Z,8.73
2024-05-09T17:15:37.437Z,5.88
2024-05-09T17:18:23.715Z,7.10
2024-05-09T17:21:09.288Z,6.65
2024-05-09T17:23:55.758Z,7.65
2024-05-09T17:26:41.542Z,8.45
2024-05-09T17:29:28.469Z,8.68
2024-05-09T17:32:14.433Z,8.68
2024-05-09T17:34:59.985Z,8.25
2024-05-09T17:37:45.635Z,6.82
2024-05-09T17:40:35.071Z,7.93
2024-05-09T17:43:22.944Z,6.88
2024-05-09T17:46:08.581Z,10.07
2024-05-09T17:48:55.273Z,9.90
2024-05-09T17:51:55.456Z,6.90
2024-05-09T17:54:41.341Z,7.07
2024-05-09T17:57:26.859Z,5.95
2024-05-09T18:00:17.335Z,5.45
2024-05-09T18:03:03.574Z,6.88
2024-05-09T18:05:49.655Z,11.30
2024-05-09T18:08:35.705Z,9.18
2024-05-09T18:11:21.621Z,7.88
2024-05-09T18:14:07.046Z,8.05
2024-05-09T18:16:52.879Z,7.03
2024-05-09T18:19:38.785Z,6.95
2024-05-09T18:22:24.529Z,10.95
2024-05-09T18:25:10.279Z,10.00
2024-05-09T18:27:56.077Z,13.55
2024-05-09T18:30:41.862Z,14.50
2024-05-09T18:33:27.382Z,14.85
2024-05-09T18:36:12.807Z,16.63
2024-05-09T18:38:59.283Z,14.45
2024-05-09T18:41:44.926Z,14.52
2024-05-09T18:44:31.406Z,16.48
2024-05-09T18:47:20.107Z,14.38
2024-05-09T18:50:11.930Z,16.00
2024-05-09T18:53:03.615Z,19.17
2024-05-09T18:55:49.433Z,16.48
2024-05-09T18:58:35.123Z,17.35
2024-05-09T19:01:20.944Z,17.60
2024-05-09T19:04:07.038Z,15.35
2024-05-09T19:06:53.324Z,17.05
2024-05-09T19:09:38.716Z,14.30
2024-05-09T19:12:24.292Z,17.58
2024-05-09T19:15:09.935Z,15.32
2024-05-09T19:17:55.553Z,15.63
2024-05-09T19:20:41.324Z,17.42
2024-05-09T19:23:27.192Z,16.27
2024-05-09T19:26:12.716Z,14.13
2024-05-09T19:28:58.487Z,15.88
2024-05-09T19:31:44.176Z,20.85
2024-05-09T19:34:30.248Z,19.83
2024-05-09T19:37:15.833Z,20.85
2024-05-09T19:40:01.300Z,20.15
2024-05-09T19:42:47.012Z,17.25
2024-05-09T19:45:33.630Z,17.20
2024-05-09T19:48:21.126Z,19.25
2024-05-09T19:51:07.168Z,19.00
2024-05-09T19:53:54.293Z,20.48
2024-05-09T19:56:44.885Z,19.80
2024-05-09T19:59:30.777Z,22.58
2024-05-09T20:02:17.633Z,19.00
2024-05-09T20:05:03.972Z,20.50
2024-05-09T20:07:49.688Z,18.00
2024-05-09T20:10:36.465Z,20.02
2024-05-09T20:13:23.260Z,20.00
2024-05-09T20:16:09.274Z,19.10
2024-05-09T20:18:55.106Z,20.08
2024-05-09T20:21:44.160Z,18.83
2024-05-09T20:24:29.955Z,19.77
2024-05-09T20:27:15.566Z,19.05
2024-05-09T20:30:00.972Z,18.63
2024-05-09T20:32:46.764Z,20.02
2024-05-09T20:35:33.017Z,17.38
2024-05-09T20:38:18.803Z,19.10
2024-05-09T20:41:04.551Z,18.50
2024-05-09T20:43:50.109Z,18.42
2024-05-09T20:46:35.868Z,17.67
2024-05-09T20:49:22.229Z,21.95
2024-05-09T20:52:08.303Z,18.52
2024-05-09T20:54:53.749Z,22.08
2024-05-09T20:57:39.144Z,20.30
2024-05-09T21:00:34.564Z,19.23
2024-05-09T21:03:25.470Z,18.92
2024-05-09T21:06:11.671Z,19.70
2024-05-09T21:08:59.889Z,19.90
2024-05-09T21:11:45.630Z,17.33
2024-05-09T21:14:31.190Z,18.25
2024-05-09T21:17:16.807Z,25.55
2024-05-09T21:20:03.605Z,20.55
2024-05-09T21:22:51.596Z,19.45
2024-05-09T21:25:37.253Z,21.30
2024-05-09T21:28:22.783Z,20.70
2024-05-09T21:31:09.210Z,19.77
2024-05-09T21:33:55.042Z,18.77
2024-05-09T21:36:41.028Z,17.90
2024-05-09T21:39:26.652Z,18.92
2024-05-09T21:42:12.260Z,18.40
2024-05-09T21:44:57.893Z,18.50
2024-05-09T21:47:43.744Z,16.00
2024-05-09T21:50:36.966Z,18.85
2024-05-09T21:53:26.530Z,15.50
2024-05-09T21:56:12.232Z,15.70
2024-05-09T21:58:57.939Z,12.65
2024-05-09T22:01:43.734Z,16.23
2024-05-09T22:04:30.139Z,13.00
2024-05-09T22:07:22.318Z,15.75
2024-05-09T22:10:19.700Z,12.70
2024-05-09T22:13:08.828Z,12.20
2024-05-09T22:15:54.873Z,14.13
2024-05-09T22:18:40.598Z,14.20
2024-05-09T22:21:26.055Z,13.43
2024-05-09T22:24:11.807Z,11.60
2024-05-09T22:26:57.341Z,12.27
2024-05-09T22:29:42.966Z,10.85
2024-05-09T22:32:28.562Z,11.20
2024-05-09T22:35:14.041Z,11.38
2024-05-09T22:37:59.740Z,13.48
2024-05-09T22:40:48.804Z,10.38
2024-05-09T22:43:35.555Z,12.77
2024-05-09T22:46:21.218Z,14.55
2024-05-09T22:49:09.321Z,12.23
2024-05-09T22:51:54.880Z,11.93
2024-05-09T22:54:40.572Z,13.18
2024-05-09T22:57:26.126Z,13.57
2024-05-09T23:00:15.754Z,12.70
2024-05-09T23:03:02.701Z,13.30
2024-05-09T23:05:48.766Z,13.38
2024-05-09T23:08:34.593Z,13.63
2024-05-09T23:11:20.325Z,12.30
2024-05-09T23:14:05.916Z,11.52
2024-05-09T23:16:51.476Z,11.93
2024-05-09T23:19:36.872Z,15.07
2024-05-09T23:22:22.477Z,12.80
2024-05-09T23:25:08.125Z,13.70
2024-05-09T23:27:53.713Z,13.88
2024-05-09T23:30:41.012Z,13.57
2024-05-09T23:33:27.659Z,12.55
2024-05-09T23:36:13.275Z,14.07
2024-05-09T23:38:59.165Z,11.95
2024-05-09T23:41:44.752Z,11.25
2024-05-09T23:44:30.404Z,12.60
2024-05-09T23:47:16.043Z,13.57
2024-05-09T23:50:02.023Z,13.38
2024-05-09T23:52:49.461Z,12.32
2024-05-09T23:55:35.261Z,12.40
2024-05-09T23:58:20.948Z,16.90
